createdAt,value
2018-06-13T00:01:52.148Z,94361.56
2018-06-13T00:04:18.834Z,94356.59
2018-06-13T00:06:45.516Z,94359.26
2018-06-13T00:09:12.211Z,94362.27
2018-06-13T00:11:38.879Z,94360.52
2018-06-13T00:14:05.573Z,94353.17
2018-06-13T00:16:32.257Z,94349.59
2018-06-13T00:18:58.869Z,94346.16
2018-06-13T00:21:25.581Z,94345.58
2018-06-13T00:23:52.237Z,94345.44
2018-06-13T00:26:18.878Z,94355.59
2018-06-13T00:28:45.563Z,94360.97
2018-06-13T00:31:12.304Z,94361.77
2018-06-13T00:33:38.940Z,94352.59
2018-06-13T00:36:05.667Z,94350.98
2018-06-13T00:38:32.354Z,94342.19
2018-06-13T00:40:59.033Z,94349.91
2018-06-13T00:43:25.695Z,94346.49
2018-06-13T00:45:52.397Z,94357.11
2018-06-13T00:48:19.090Z,94355.44
2018-06-13T00:50:45.860Z,94356.34
2018-06-13T00:53:12.640Z,94346.88
2018-06-13T00:55:39.290Z,94349.81
2018-06-13T00:58:05.943Z,94353.72
2018-06-13T01:00:32.616Z,94350.86
2018-06-13T01:02:59.262Z,94351.83
2018-06-13T01:05:25.934Z,94349.02
2018-06-13T01:07:52.576Z,94345.68
2018-06-13T01:10:19.296Z,94349.93
2018-06-13T01:12:45.946Z,94346.42
2018-06-13T01:15:12.618Z,94336.55
2018-06-13T01:17:39.276Z,94337.13
2018-06-13T01:20:05.927Z,94344.66
2018-06-13T01:22:32.602Z,94351.23
2018-06-13T01:24:59.332Z,94346.88
2018-06-13T01:27:26.002Z,94340.13
2018-06-13T01:29:52.740Z,94334.88
2018-06-13T01:32:19.431Z,94332.76
2018-06-13T01:34:46.127Z,94329.69
2018-06-13T01:37:12.779Z,94330.95
2018-06-13T01:39:39.430Z,94333.09
2018-06-13T01:42:06.111Z,94329.80
2018-06-13T01:44:32.799Z,94323.88
2018-06-13T01:46:59.481Z,94325.56
2018-06-13T01:49:26.127Z,94323.91
2018-06-13T01:51:52.839Z,94315.06
2018-06-13T01:54:19.530Z,94314.59
2018-06-13T01:56:46.145Z,94312.84
2018-06-13T01:59:12.808Z,94319.82
2018-06-13T02:01:39.599Z,94316.66
2018-06-13T02:04:06.260Z,94316.69
2018-06-13T02:06:32.912Z,94315.10
2018-06-13T02:08:59.605Z,94317.53
2018-06-13T02:11:26.248Z,94308.36
2018-06-13T02:13:52.957Z,94308.46
2018-06-13T02:16:19.608Z,94301.70
2018-06-13T02:18:46.251Z,94305.22
2018-06-13T02:21:12.953Z,94307.16
2018-06-13T02:23:39.692Z,94300.25
2018-06-13T02:26:06.350Z,94294.80
2018-06-13T02:28:33.003Z,94295.70
2018-06-13T02:30:59.677Z,94291.81
2018-06-13T02:33:26.376Z,94287.46
2018-06-13T02:35:53.053Z,94278.31
2018-06-13T02:38:19.665Z,94280.23
2018-06-13T02:40:46.334Z,94287.94
2018-06-13T02:43:12.994Z,94283.77
2018-06-13T02:45:39.719Z,94290.05
2018-06-13T02:48:06.421Z,94289.88
2018-06-13T02:50:33.036Z,94291.92
2018-06-13T02:52:59.737Z,94289.41
2018-06-13T02:55:26.389Z,94299.52
2018-06-13T02:57:53.095Z,94299.06
2018-06-13T03:00:19.771Z,94298.40
2018-06-13T03:02:46.429Z,94308.80
2018-06-13T03:05:13.083Z,94308.35
2018-06-13T03:07:39.785Z,94309.94
2018-06-13T03:10:06.443Z,94308.08
2018-06-13T03:12:33.135Z,94307.99
2018-06-13T03:14:59.789Z,94314.70
2018-06-13T03:17:26.439Z,94318.09
2018-06-13T03:19:53.108Z,94315.05
2018-06-13T03:22:19.793Z,94313.66
2018-06-13T03:24:46.439Z,94317.72
2018-06-13T03:27:13.095Z,94322.29
2018-06-13T03:29:39.776Z,94319.79
2018-06-13T03:32:06.441Z,94319.90
2018-06-13T03:34:33.156Z,94315.19
2018-06-13T03:36:59.805Z,94316.41
2018-06-13T03:39:26.479Z,94316.31
2018-06-13T03:41:53.235Z,94313.23
2018-06-13T03:44:19.880Z,94309.08
2018-06-13T03:46:46.537Z,94311.19
2018-06-13T03:49:13.198Z,94309.47
2018-06-13T03:51:39.894Z,94312.00
2018-06-13T03:54:06.535Z,94305.34
2018-06-13T03:56:33.251Z,94301.09
2018-06-13T03:59:00.027Z,94300.34
2018-06-13T04:01:26.644Z,94303.81
2018-06-13T04:03:53.336Z,94308.66
2018-06-13T04:06:20.035Z,94292.80
2018-06-13T04:08:46.651Z,94301.61
2018-06-13T04:11:13.389Z,94299.67
2018-06-13T04:13:40.030Z,94292.33
2018-06-13T04:16:06.724Z,94296.86
2018-06-13T04:18:33.436Z,94293.66
2018-06-13T04:21:00.131Z,94290.39
2018-06-13T04:23:26.799Z,94283.52
2018-06-13T04:25:53.524Z,94280.99
2018-06-13T04:28:20.196Z,94283.23
2018-06-13T04:30:46.887Z,94280.81
2018-06-13T04:33:13.531Z,94280.89
2018-06-13T04:35:40.263Z,94282.95
2018-06-13T04:38:06.878Z,94278.78
2018-06-13T04:40:33.574Z,94281.78
2018-06-13T04:43:00.242Z,94282.52
2018-06-13T04:45:26.892Z,94280.77
2018-06-13T04:47:53.634Z,94280.78
2018-06-13T04:50:20.315Z,94283.30
2018-06-13T04:52:46.986Z,94287.58
2018-06-13T04:55:13.683Z,94283.84
2018-06-13T04:57:40.387Z,94288.70
2018-06-13T05:00:07.051Z,94286.74
2018-06-13T05:02:33.722Z,94286.64
2018-06-13T05:05:00.379Z,94288.25
2018-06-13T05:07:27.070Z,94287.40
2018-06-13T05:09:53.731Z,94290.37
2018-06-13T05:12:20.402Z,94286.77
2018-06-13T05:14:47.113Z,94289.08
2018-06-13T05:17:13.772Z,94289.45
2018-06-13T05:19:40.434Z,94289.08
2018-06-13T05:22:07.089Z,94289.45
2018-06-13T05:24:33.756Z,94283.57
2018-06-13T05:27:00.476Z,94286.63
2018-06-13T05:29:27.142Z,94286.73
2018-06-13T05:31:53.858Z,94284.21
2018-06-13T05:34:20.563Z,94282.85
2018-06-13T05:36:47.159Z,94277.65
2018-06-13T05:39:13.831Z,94279.69
2018-06-13T05:41:40.477Z,94276.16
2018-06-13T05:44:07.177Z,94270.37
2018-06-13T05:46:35.568Z,94270.20
2018-06-13T05:49:00.619Z,94272.62
2018-06-13T05:51:27.474Z,94267.34
2018-06-13T05:53:54.145Z,94274.30
2018-06-13T05:56:20.888Z,94277.17
2018-06-13T05:58:47.543Z,94275.30
2018-06-13T06:01:14.225Z,94272.72
2018-06-13T06:03:40.908Z,94276.31
2018-06-13T06:06:07.558Z,94279.58
2018-06-13T06:08:34.303Z,94279.75
2018-06-13T06:11:00.936Z,94276.22
2018-06-13T06:13:27.589Z,94283.77
2018-06-13T06:15:54.295Z,94282.73
2018-06-13T06:18:21.046Z,94283.48
2018-06-13T06:20:47.650Z,94288.69
2018-06-13T06:23:14.397Z,94291.78
2018-06-13T06:25:41.019Z,94283.11
2018-06-13T06:28:07.677Z,94285.87
2018-06-13T06:30:34.346Z,94282.81
2018-06-13T06:33:00.992Z,94280.03
2018-06-13T06:35:27.694Z,94274.72
2018-06-13T06:37:54.393Z,94273.31
2018-06-13T06:40:21.069Z,94280.50
2018-06-13T06:42:47.718Z,94278.44
2018-06-13T06:45:14.394Z,94282.98
2018-06-13T06:47:41.102Z,94280.75
2018-06-13T06:50:07.716Z,94273.20
2018-06-13T06:52:34.397Z,94268.36
2018-06-13T06:55:01.075Z,94268.92
2018-06-13T06:57:27.735Z,94263.39
2018-06-13T06:59:54.416Z,94264.14
2018-06-13T07:02:21.110Z,94247.13
2018-06-13T07:04:47.767Z,94263.58
2018-06-13T07:07:14.453Z,94256.88
2018-06-13T07:09:41.090Z,94255.19
2018-06-13T07:12:07.772Z,94264.69
2018-06-13T07:14:37.283Z,94258.36
2018-06-13T07:17:03.979Z,94265.79
2018-06-13T07:19:30.641Z,94262.16
2018-06-13T07:21:57.271Z,94259.47
2018-06-13T07:24:25.085Z,94254.97
2018-06-13T07:26:51.755Z,94255.19
2018-06-13T07:29:18.384Z,94259.27
2018-06-13T07:31:45.049Z,94253.94
2018-06-13T07:34:11.748Z,94251.98
2018-06-13T07:36:38.410Z,94243.36
2018-06-13T07:39:05.091Z,94246.50
2018-06-13T07:41:31.784Z,94241.67
2018-06-13T07:43:58.485Z,94246.97
2018-06-13T07:46:25.162Z,94240.81
2018-06-13T07:48:51.915Z,94234.17
2018-06-13T07:51:18.592Z,94226.38
2018-06-13T07:53:45.273Z,94225.59
2018-06-13T07:56:12.025Z,94218.62
2018-06-13T07:58:38.692Z,94214.55
2018-06-13T08:01:05.378Z,94215.47
2018-06-13T08:03:32.032Z,94205.56
2018-06-13T08:05:58.697Z,94208.11
2018-06-13T08:08:25.442Z,94198.33
2018-06-13T08:10:52.063Z,94196.79
2018-06-13T08:13:18.894Z,94194.06
2018-06-13T08:15:45.555Z,94194.46
2018-06-13T08:18:12.214Z,94190.09
2018-06-13T08:20:38.883Z,94186.81
2018-06-13T08:23:05.909Z,94177.44
2018-06-13T08:25:32.564Z,94188.14
2018-06-13T08:27:59.233Z,94177.09
2018-06-13T08:30:26.000Z,94174.41
2018-06-13T08:32:52.627Z,94175.30
2018-06-13T08:35:19.313Z,94174.09
2018-06-13T08:37:47.289Z,94168.69
2018-06-13T08:40:12.616Z,94170.57
2018-06-13T08:42:39.275Z,94170.58
2018-06-13T08:45:05.933Z,94170.20
2018-06-13T08:47:32.700Z,94166.53
2018-06-13T08:49:59.378Z,94165.64
2018-06-13T08:52:26.027Z,94163.95
2018-06-13T08:54:52.711Z,94168.44
2018-06-13T08:57:19.382Z,94167.80
2018-06-13T08:59:46.088Z,94167.06
2018-06-13T09:02:12.739Z,94162.93
2018-06-13T09:04:39.405Z,94163.84
2018-06-13T09:07:06.081Z,94153.42
2018-06-13T09:09:32.757Z,94159.13
2018-06-13T09:11:59.456Z,94151.30
2018-06-13T09:14:26.087Z,94155.14
2018-06-13T09:16:52.739Z,94153.50
2018-06-13T09:19:19.410Z,94152.86
2018-06-13T09:21:46.093Z,94147.16
2018-06-13T09:24:12.747Z,94141.03
2018-06-13T09:26:39.449Z,94135.19
2018-06-13T09:29:06.115Z,94142.53
2018-06-13T09:31:32.785Z,94146.02
2018-06-13T09:33:59.450Z,94137.19
2018-06-13T09:36:26.124Z,94137.77
2018-06-13T09:38:52.784Z,94124.95
2018-06-13T09:41:19.454Z,94131.55
2018-06-13T09:43:46.141Z,94132.09
2018-06-13T09:46:12.832Z,94127.96
2018-06-13T09:48:39.493Z,94126.48
2018-06-13T09:51:06.192Z,94119.09
2018-06-13T09:53:32.882Z,94120.50
2018-06-13T09:55:59.555Z,94119.38
2018-06-13T09:58:26.244Z,94119.00
2018-06-13T10:00:52.939Z,94112.09
2018-06-13T10:03:19.563Z,94106.61
2018-06-13T10:05:46.242Z,94109.73
2018-06-13T10:08:12.908Z,94104.39
2018-06-13T10:10:39.559Z,94101.34
2018-06-13T10:13:06.330Z,94102.19
2018-06-13T10:15:33.047Z,94091.61
2018-06-13T10:17:59.663Z,94089.79
2018-06-13T10:20:26.361Z,94088.67
2018-06-13T10:22:52.998Z,94087.97
2018-06-13T10:25:19.716Z,94085.10
2018-06-13T10:27:48.619Z,94074.87
2018-06-13T10:30:15.288Z,94075.75
2018-06-13T10:32:41.965Z,94078.52
2018-06-13T10:35:08.647Z,94079.25
2018-06-13T10:37:35.314Z,94071.13
2018-06-13T10:40:01.982Z,94067.52
2018-06-13T10:42:28.673Z,94056.61
2018-06-13T10:44:55.390Z,94065.70
2018-06-13T10:47:22.045Z,94065.13
2018-06-13T10:49:48.737Z,94056.01
2018-06-13T10:52:15.425Z,94047.63
2018-06-13T10:54:42.191Z,94039.63
2018-06-13T10:57:08.843Z,94039.64
2018-06-13T10:59:35.499Z,94044.94
2018-06-13T11:02:02.209Z,94036.69
2018-06-13T11:04:28.845Z,94042.51
2018-06-13T11:06:55.499Z,94041.78
2018-06-13T11:09:22.209Z,94042.43
2018-06-13T11:11:48.954Z,94047.09
2018-06-13T11:14:15.573Z,94037.14
2018-06-13T11:16:42.223Z,94033.55
2018-06-13T11:19:08.905Z,94036.48
2018-06-13T11:21:35.574Z,94033.37
2018-06-13T11:24:02.249Z,94039.52
2018-06-13T11:26:28.899Z,94035.09
2018-06-13T11:28:55.720Z,94012.77
2018-06-13T11:31:23.425Z,94019.50
2018-06-13T11:33:50.071Z,94029.99
2018-06-13T11:36:16.736Z,94051.97
2018-06-13T11:38:43.417Z,94045.67
2018-06-13T11:41:10.254Z,94033.76
2018-06-13T11:43:39.447Z,94036.22
2018-06-13T11:46:06.099Z,94045.45
2018-06-13T11:48:32.819Z,94051.50
2018-06-13T11:50:59.485Z,94053.50
2018-06-13T11:53:26.128Z,94058.23
2018-06-13T11:55:52.835Z,94061.78
2018-06-13T11:58:19.465Z,94058.23
2018-06-13T12:00:46.131Z,94067.38
2018-06-13T12:03:12.848Z,94060.78
2018-06-13T12:05:39.518Z,94064.75
2018-06-13T12:08:06.176Z,94069.55
2018-06-13T12:10:32.867Z,94073.64
2018-06-13T12:12:59.871Z,94070.38
2018-06-13T12:15:26.544Z,94060.34
2018-06-13T12:17:53.231Z,94048.58
2018-06-13T12:20:19.934Z,94033.30
2018-06-13T12:22:46.641Z,94021.75
2018-06-13T12:25:13.282Z,94015.33
2018-06-13T12:27:41.220Z,94006.52
2018-06-13T12:30:06.673Z,94006.23
2018-06-13T12:32:33.470Z,93999.09
2018-06-13T12:35:00.103Z,93988.48
2018-06-13T12:37:26.842Z,93967.99
2018-06-13T12:39:53.527Z,93941.91
2018-06-13T12:42:20.253Z,93918.84
2018-06-13T12:44:46.910Z,93903.41
2018-06-13T12:47:13.620Z,93903.11
2018-06-13T12:49:40.343Z,93897.05
2018-06-13T12:52:07.056Z,93897.71
2018-06-13T12:54:33.687Z,93893.74
2018-06-13T12:57:00.427Z,93896.76
2018-06-13T12:59:27.188Z,93907.56
2018-06-13T13:01:53.923Z,93903.37
2018-06-13T13:04:20.629Z,93913.68
2018-06-13T13:06:47.373Z,93905.13
2018-06-13T13:09:14.103Z,93913.16
2018-06-13T13:11:40.816Z,93918.80
2018-06-13T13:14:10.278Z,93930.77
2018-06-13T13:16:36.929Z,93940.08
2018-06-13T13:19:03.630Z,93956.75
2018-06-13T13:21:30.321Z,93958.78
2018-06-13T13:23:56.951Z,93964.94
2018-06-13T13:26:23.788Z,93973.88
2018-06-13T13:28:50.424Z,93982.89
2018-06-13T13:31:17.088Z,93988.75
2018-06-13T13:33:43.780Z,94005.05
2018-06-13T13:36:10.557Z,94001.05
2018-06-13T13:38:37.288Z,94002.89
2018-06-13T13:41:03.937Z,94010.21
2018-06-13T13:43:30.650Z,94015.14
2018-06-13T13:45:57.322Z,94012.84
2018-06-13T13:48:24.009Z,94004.76
2018-06-13T13:50:50.711Z,93991.52
2018-06-13T13:53:17.357Z,93980.72
2018-06-13T13:55:44.146Z,93968.40
2018-06-13T13:58:10.773Z,93971.14
2018-06-13T14:00:37.470Z,93973.40
2018-06-13T14:03:11.272Z,93976.00
2018-06-13T14:05:44.626Z,93987.32
2018-06-13T14:08:11.312Z,93980.84
2018-06-13T14:10:48.229Z,93983.97
2018-06-13T14:13:21.409Z,93972.30
2018-06-13T14:15:48.067Z,93971.87
2018-06-13T14:18:22.360Z,93980.41
2018-06-13T14:20:56.742Z,93975.80
2018-06-13T14:23:23.451Z,93991.12
2018-06-13T14:25:50.064Z,93989.67
2018-06-13T14:28:17.222Z,94010.70
2018-06-13T14:30:43.824Z,94009.07
2018-06-13T14:33:10.533Z,93997.88
2018-06-13T14:35:37.228Z,93988.94
2018-06-13T14:38:03.900Z,93973.95
2018-06-13T14:40:30.557Z,93971.69
2018-06-13T14:42:57.322Z,93968.20
2018-06-13T14:45:23.995Z,93966.11
2018-06-13T14:47:50.695Z,93960.48
2018-06-13T14:50:17.365Z,93960.07
2018-06-13T14:52:44.033Z,93965.09
2018-06-13T14:55:10.696Z,93958.78
2018-06-13T14:57:37.392Z,93950.41
2018-06-13T15:00:04.055Z,93959.48
2018-06-13T15:02:30.751Z,93958.74
2018-06-13T15:04:57.398Z,93964.95
2018-06-13T15:07:24.144Z,93963.55
2018-06-13T15:09:50.762Z,93964.41
2018-06-13T15:12:17.407Z,93960.60
2018-06-13T15:14:44.133Z,93959.58
2018-06-13T15:17:10.836Z,93960.84
2018-06-13T15:19:37.511Z,93946.94
2018-06-13T15:22:04.168Z,93944.30
2018-06-13T15:24:30.843Z,93938.41
2018-06-13T15:26:57.532Z,93943.52
2018-06-13T15:29:24.179Z,93944.96
2018-06-13T15:31:50.873Z,93947.55
2018-06-13T15:34:17.557Z,93950.89
2018-06-13T15:36:44.269Z,93941.34
2018-06-13T15:39:10.919Z,93938.56
2018-06-13T15:41:37.611Z,93932.13
2018-06-13T15:44:04.250Z,93931.48
2018-06-13T15:46:30.878Z,93936.97
2018-06-13T15:48:57.563Z,93937.98
2018-06-13T15:51:24.198Z,93938.08
2018-06-13T15:53:50.851Z,93942.32
2018-06-13T15:56:17.509Z,93940.81
2018-06-13T15:58:44.205Z,93937.97
2018-06-13T16:01:10.922Z,93950.19
2018-06-13T16:03:37.599Z,93952.08
2018-06-13T16:06:04.304Z,93954.75
2018-06-13T16:08:30.911Z,93970.69
2018-06-13T16:10:57.601Z,93975.74
2018-06-13T16:13:24.247Z,93969.30
2018-06-13T16:15:50.907Z,93989.25
2018-06-13T16:18:17.616Z,93990.72
2018-06-13T16:20:44.266Z,94008.86
2018-06-13T16:23:10.935Z,94009.37
2018-06-13T16:25:37.608Z,94011.15
2018-06-13T16:28:04.270Z,94021.27
2018-06-13T16:30:30.988Z,94024.08
2018-06-13T16:32:57.749Z,94026.88
2018-06-13T16:35:24.395Z,94011.60
2018-06-13T16:37:51.057Z,94006.88
2018-06-13T16:40:17.710Z,94014.69
2018-06-13T16:42:44.371Z,94008.31
2018-06-13T16:45:11.039Z,94012.47
2018-06-13T16:47:37.749Z,94016.44
2018-06-13T16:50:04.444Z,94037.19
2018-06-13T16:52:31.102Z,94053.27
2018-06-13T16:54:57.747Z,94025.53
2018-06-13T16:57:24.500Z,94033.13
2018-06-13T16:59:51.152Z,94008.47
2018-06-13T17:02:17.911Z,94046.52
2018-06-13T17:04:44.567Z,94069.21
2018-06-13T17:07:11.263Z,94102.97
2018-06-13T17:09:37.911Z,94111.16
2018-06-13T17:12:04.618Z,94122.06
2018-06-13T17:14:31.279Z,94108.53
2018-06-13T17:16:57.927Z,94102.28
2018-06-13T17:19:24.600Z,94097.47
2018-06-13T17:21:51.259Z,94103.58
2018-06-13T17:24:17.961Z,94112.98
2018-06-13T17:26:44.588Z,94115.97
2018-06-13T17:29:11.290Z,94133.92
2018-06-13T17:31:38.335Z,94146.38
2018-06-13T17:34:05.005Z,94154.47
2018-06-13T17:36:31.663Z,94166.42
2018-06-13T17:38:58.369Z,94172.98
2018-06-13T17:41:25.036Z,94180.52
2018-06-13T17:43:51.700Z,94181.75
2018-06-13T17:46:18.351Z,94178.80
2018-06-13T17:48:45.081Z,94173.12
2018-06-13T17:51:11.759Z,94169.21
2018-06-13T17:53:38.433Z,94167.72
2018-06-13T17:56:05.098Z,94162.79
2018-06-13T17:58:31.748Z,94166.33
2018-06-13T18:00:58.411Z,94166.14
2018-06-13T18:03:25.138Z,94165.48
2018-06-13T18:05:51.754Z,94170.50
2018-06-13T18:08:18.486Z,94164.85
2018-06-13T18:10:45.151Z,94164.11
2018-06-13T18:13:11.857Z,94168.19
2018-06-13T18:15:38.516Z,94164.95
2018-06-13T18:18:05.311Z,94166.53
2018-06-13T18:20:31.974Z,94178.81
2018-06-13T18:22:58.628Z,94188.85
2018-06-13T18:25:25.289Z,94183.54
2018-06-13T18:27:51.949Z,94182.52
2018-06-13T18:30:18.644Z,94173.99
2018-06-13T18:32:45.316Z,94162.09
2018-06-13T18:35:12.011Z,94148.70
2018-06-13T18:37:38.671Z,94151.69
2018-06-13T18:40:05.363Z,94157.64
2018-06-13T18:42:32.067Z,94165.05
2018-06-13T18:44:58.728Z,94176.31
2018-06-13T18:47:25.426Z,94199.46
2018-06-13T18:49:52.115Z,94202.52
2018-06-13T18:52:18.747Z,94204.20
2018-06-13T18:54:45.416Z,94210.36
2018-06-13T18:57:12.125Z,94208.28
2018-06-13T18:59:38.781Z,94205.05
2018-06-13T19:02:05.431Z,94217.77
2018-06-13T19:04:32.121Z,94221.51
2018-06-13T19:06:58.776Z,94217.13
2018-06-13T19:09:25.532Z,94224.84
2018-06-13T19:11:52.148Z,94221.41
2018-06-13T19:14:18.801Z,94232.02
2018-06-13T19:16:45.521Z,94246.78
2018-06-13T19:19:12.172Z,94251.33
2018-06-13T19:21:38.874Z,94255.24
2018-06-13T19:24:05.529Z,94254.22
2018-06-13T19:26:32.241Z,94249.13
2018-06-13T19:28:58.932Z,94229.23
2018-06-13T19:31:25.547Z,94208.05
2018-06-13T19:33:52.251Z,94191.33
2018-06-13T19:36:19.094Z,94163.90
2018-06-13T19:38:45.747Z,94127.77
2018-06-13T19:41:12.393Z,94110.13
2018-06-13T19:43:39.060Z,94114.03
2018-06-13T19:46:05.816Z,94143.57
2018-06-13T19:48:32.536Z,94183.62
2018-06-13T19:50:59.186Z,94202.86
2018-06-13T19:53:25.900Z,94200.72
2018-06-13T19:55:52.560Z,94215.20
2018-06-13T19:58:19.296Z,94197.28
2018-06-13T20:00:45.932Z,94197.66
2018-06-13T20:03:12.596Z,94201.64
2018-06-13T20:05:39.308Z,94212.98
2018-06-13T20:08:05.928Z,94238.52
2018-06-13T20:10:32.593Z,94244.66
2018-06-13T20:12:59.293Z,94250.61
2018-06-13T20:15:26.003Z,94252.17
2018-06-13T20:17:52.655Z,94240.59
2018-06-13T20:20:19.317Z,94241.40
2018-06-13T20:22:45.983Z,94250.98
2018-06-13T20:25:12.733Z,94256.35
2018-06-13T20:27:39.294Z,94244.48
2018-06-13T20:30:05.931Z,94233.98
2018-06-13T20:32:32.624Z,94236.20
2018-06-13T20:35:00.595Z,94243.27
2018-06-13T20:37:25.900Z,94237.52
2018-06-13T20:39:52.631Z,94238.91
2018-06-13T20:42:19.309Z,94236.13
2018-06-13T20:44:45.918Z,94230.25
2018-06-13T20:47:12.605Z,94231.75
2018-06-13T20:49:39.264Z,94225.52
2018-06-13T20:52:06.007Z,94222.84
2018-06-13T20:54:32.657Z,94217.81
2018-06-13T20:56:59.371Z,94221.98
2018-06-13T20:59:26.094Z,94219.03
2018-06-13T21:01:55.766Z,94219.41
2018-06-13T21:04:22.417Z,94210.74
2018-06-13T21:06:49.065Z,94203.44
2018-06-13T21:09:15.739Z,94202.28
2018-06-13T21:11:42.405Z,94214.20
2018-06-13T21:14:09.056Z,94223.28
2018-06-13T21:16:35.765Z,94219.38
2018-06-13T21:19:02.414Z,94216.86
2018-06-13T21:21:29.147Z,94220.77
2018-06-13T21:23:55.757Z,94221.41
2018-06-13T21:26:22.425Z,94220.66
2018-06-13T21:28:49.088Z,94221.04
2018-06-13T21:31:15.755Z,94228.92
2018-06-13T21:33:42.410Z,94227.91
2018-06-13T21:36:09.072Z,94219.47
2018-06-13T21:38:35.768Z,94218.72
2018-06-13T21:41:02.476Z,94218.08
2018-06-13T21:43:29.184Z,94220.29
2018-06-13T21:45:55.912Z,94210.44
2018-06-13T21:48:22.644Z,94203.20
2018-06-13T21:50:49.342Z,94207.38
2018-06-13T21:53:15.967Z,94210.09
2018-06-13T21:55:42.623Z,94212.58
2018-06-13T21:58:09.305Z,94208.33
2018-06-13T22:00:35.959Z,94204.31
2018-06-13T22:03:02.622Z,94204.52
2018-06-13T22:05:29.296Z,94191.03
2018-06-13T22:07:55.997Z,94183.63
2018-06-13T22:10:22.656Z,94166.70
2018-06-13T22:12:49.368Z,94165.21
2018-06-13T22:15:16.109Z,94157.16
2018-06-13T22:17:42.755Z,94154.55
2018-06-13T22:20:09.410Z,94150.09
2018-06-13T22:22:36.128Z,94146.02
2018-06-13T22:25:02.778Z,94133.55
2018-06-13T22:27:29.475Z,94140.72
2018-06-13T22:29:56.109Z,94137.55
2018-06-13T22:32:22.861Z,94133.38
2018-06-13T22:34:49.481Z,94134.02
2018-06-13T22:37:16.138Z,94132.91
2018-06-13T22:39:42.839Z,94124.37
2018-06-13T22:42:12.428Z,94121.32
2018-06-13T22:44:39.139Z,94111.09
2018-06-13T22:47:05.876Z,94108.52
2018-06-13T22:49:32.492Z,94117.41
2018-06-13T22:51:59.209Z,94123.90
2018-06-13T22:54:25.835Z,94118.33
2018-06-13T22:56:52.533Z,94126.61
2018-06-13T22:59:19.181Z,94126.89
2018-06-13T23:01:45.838Z,94128.45
2018-06-13T23:04:12.523Z,94132.55
2018-06-13T23:06:39.187Z,94134.22
2018-06-13T23:09:05.921Z,94134.13
2018-06-13T23:11:32.674Z,94136.53
2018-06-13T23:13:59.403Z,94140.98
2018-06-13T23:16:26.098Z,94138.94
2018-06-13T23:18:52.743Z,94135.61
2018-06-13T23:21:19.372Z,94143.39
2018-06-13T23:23:46.030Z,94146.65
2018-06-13T23:26:12.721Z,94149.33
2018-06-13T23:28:39.373Z,94162.81
2018-06-13T23:31:06.033Z,94161.48
2018-06-13T23:33:32.730Z,94161.22
2018-06-13T23:35:59.342Z,94157.98
2018-06-13T23:38:27.329Z,94154.73
2018-06-13T23:40:52.655Z,94151.94
2018-06-13T23:43:19.369Z,94158.80
2018-06-13T23:45:46.073Z,94159.38
2018-06-13T23:48:12.724Z,94162.53
2018-06-13T23:50:42.311Z,94162.61
2018-06-13T23:53:08.969Z,94163.72
2018-06-13T23:55:35.666Z,94160.83
2018-06-13T23:58:02.361Z,94153.98
